Terminal Aerodrome Forecast
Issued by NWS Paducah, KY

Home | Current Version | Previous Version | Text Only | Print | Product List | Glossary On
Versions: 1 2 3 4 5 6 7 8 9 10 11 12 13 14
020
FTUS43 KPAH 240520
TAFEVV
TAF
KEVV 240520Z 2406/2506 16009KT P6SM FEW200 WS020/18050KT
     FM241400 19011G17KT P6SM SCT025 BKN250
      TEMPO 2415/2419 19010KT BKN025
     FM241900 19013G22KT P6SM BKN035
     FM242300 16006KT P6SM BKN040=

USA.gov is the U.S. government's official web portal to all federal, state and local government web resources and services.